createdAt,value
2023-03-06T04:58:23.590Z,99686.06
2023-03-06T05:01:26.084Z,99672.69
2023-03-06T05:04:28.204Z,99681.53
2023-03-06T05:07:30.788Z,99676.53
2023-03-06T05:10:32.915Z,99678.72
2023-03-06T05:13:35.403Z,99683.91
2023-03-06T05:16:37.616Z,99684.25
2023-03-06T05:19:40.080Z,99681.50
2023-03-06T05:22:42.851Z,99682.19
2023-03-06T05:25:45.292Z,99681.22
2023-03-06T05:28:53.191Z,99684.84
2023-03-06T05:31:56.090Z,99689.72
2023-03-06T05:35:01.455Z,99683.44
2023-03-06T05:38:04.256Z,99677.22
2023-03-06T05:41:06.463Z,99690.25
2023-03-06T05:44:08.990Z,99684.62
2023-03-06T05:47:11.963Z,99682.91
2023-03-06T05:50:14.788Z,99685.19
2023-03-06T05:53:16.859Z,99684.34
2023-03-06T05:56:19.480Z,99693.16
2023-03-06T05:59:21.615Z,99688.91
2023-03-06T06:02:24.222Z,99692.47
2023-03-06T06:05:27.022Z,99698.47
2023-03-06T06:08:29.271Z,99694.13
2023-03-06T06:11:31.921Z,99697.56
2023-03-06T06:14:34.576Z,99692.97
2023-03-06T06:17:37.014Z,99699.50
2023-03-06T06:20:39.217Z,99700.94
2023-03-06T06:23:42.495Z,99695.63
2023-03-06T06:26:45.022Z,99699.00
2023-03-06T06:29:51.866Z,99699.84
2023-03-06T06:32:54.670Z,99706.75
2023-03-06T06:35:57.155Z,99704.53
2023-03-06T06:38:59.762Z,99703.34
2023-03-06T06:42:28.004Z,99715.62
2023-03-06T06:45:24.807Z,99706.75
2023-03-06T06:48:27.179Z,99705.69
2023-03-06T06:51:33.566Z,99704.28
2023-03-06T06:54:36.061Z,99700.84
2023-03-06T06:57:39.612Z,99700.78
2023-03-06T07:00:42.041Z,99702.94
2023-03-06T07:03:44.250Z,99703.81
2023-03-06T07:06:46.855Z,99705.44
2023-03-06T07:09:49.466Z,99705.56
2023-03-06T07:12:52.027Z,99715.97
2023-03-06T07:15:54.465Z,99715.31
2023-03-06T07:18:57.292Z,99711.75
2023-03-06T07:22:00.485Z,99709.59
2023-03-06T07:25:05.431Z,99725.34
2023-03-06T07:28:08.920Z,99724.56
2023-03-06T07:31:11.871Z,99723.47
2023-03-06T07:34:15.099Z,99730.28
2023-03-06T07:37:17.520Z,99731.44
2023-03-06T07:40:20.802Z,99729.63
2023-03-06T07:43:23.301Z,99724.91
2023-03-06T07:46:28.463Z,99725.81
2023-03-06T07:49:31.885Z,99723.50
2023-03-06T07:52:34.712Z,99726.78
2023-03-06T07:55:40.360Z,99731.84
2023-03-06T07:58:45.182Z,99738.47
2023-03-06T08:01:47.613Z,99741.63
2023-03-06T08:04:54.451Z,99736.47
2023-03-06T08:07:56.737Z,99740.72
2023-03-06T08:10:59.132Z,99741.37
2023-03-06T08:14:01.333Z,99751.47
2023-03-06T08:17:04.200Z,99747.97
2023-03-06T08:20:07.249Z,99747.41
2023-03-06T08:23:09.649Z,99740.84
2023-03-06T08:26:20.998Z,99741.66
2023-03-06T08:29:23.464Z,99730.09
2023-03-06T08:32:26.515Z,99736.72
2023-03-06T08:35:28.973Z,99732.78
2023-03-06T08:38:31.096Z,99726.47
2023-03-06T08:41:34.606Z,99723.72
2023-03-06T08:44:37.331Z,99720.09
2023-03-06T08:47:39.702Z,99731.66
2023-03-06T08:50:41.962Z,99726.16
2023-03-06T08:53:44.829Z,99725.22
2023-03-06T08:56:47.054Z,99719.28
2023-03-06T08:59:49.532Z,99717.00
2023-03-06T09:02:51.792Z,99719.94
2023-03-06T09:05:54.285Z,99713.16
2023-03-06T09:08:56.407Z,99717.59
2023-03-06T09:11:58.892Z,99702.19
2023-03-06T09:15:04.304Z,99697.09
2023-03-06T09:18:06.899Z,99703.37
2023-03-06T09:21:10.229Z,99695.28
2023-03-06T09:24:12.635Z,99690.84
2023-03-06T09:27:14.836Z,99691.28
2023-03-06T09:30:17.951Z,99688.03
2023-03-06T09:33:21.553Z,99677.81
2023-03-06T09:36:24.013Z,99677.38
2023-03-06T09:39:27.166Z,99677.31
2023-03-06T09:42:31.351Z,99673.97
2023-03-06T09:45:37.240Z,99681.63
2023-03-06T09:49:00.259Z,99681.37
2023-03-06T09:52:30.137Z,99686.28
2023-03-06T09:55:37.972Z,99672.72
2023-03-06T09:58:47.494Z,99671.09
2023-03-06T10:02:12.998Z,99671.78
2023-03-06T10:05:21.541Z,99669.34
2023-03-06T10:08:27.972Z,99669.44
2023-03-06T10:11:43.439Z,99663.19
2023-03-06T10:15:21.102Z,99659.69
2023-03-06T10:18:23.521Z,99653.88
2023-03-06T10:21:40.870Z,99653.53
2023-03-06T10:25:02.694Z,99668.19
2023-03-06T10:28:14.280Z,99665.41
2023-03-06T10:31:23.728Z,99653.06
2023-03-06T10:34:32.563Z,99657.91
2023-03-06T10:37:34.994Z,99656.00
2023-03-06T10:40:45.864Z,99656.94
2023-03-06T10:44:00.542Z,99647.50
2023-03-06T10:47:36.977Z,99633.53
2023-03-06T10:50:39.438Z,99629.47
2023-03-06T10:53:53.540Z,99624.41
2023-03-06T10:56:56.102Z,99614.78
2023-03-06T11:00:06.087Z,99608.88
2023-03-06T11:03:24.550Z,99614.38
2023-03-06T11:06:35.715Z,99593.72
2023-03-06T11:09:38.925Z,99586.69
2023-03-06T11:12:43.415Z,99586.72
2023-03-06T11:16:02.239Z,99576.34
2023-03-06T11:19:17.570Z,99565.25
2023-03-06T11:22:20.001Z,99564.66
2023-03-06T11:25:27.569Z,99549.09
2023-03-06T11:28:29.815Z,99537.88
2023-03-06T11:31:37.041Z,99539.66
2023-03-06T11:34:47.259Z,99537.69
2023-03-06T11:38:04.184Z,99525.38
2023-03-06T11:41:19.688Z,99511.66
2023-03-06T11:45:11.239Z,99505.63
2023-03-06T11:48:13.519Z,99497.81
2023-03-06T11:51:39.556Z,99484.56
2023-03-06T11:54:41.987Z,99477.00
2023-03-06T11:58:19.347Z,99469.88
2023-03-06T12:02:07.912Z,99467.22
2023-03-06T12:05:32.794Z,99468.16
2023-03-06T12:09:11.851Z,99450.69
2023-03-06T12:12:26.457Z,99445.66
2023-03-06T12:15:43.199Z,99448.28
2023-03-06T12:19:02.318Z,99444.91
2023-03-06T12:22:58.032Z,99441.47
2023-03-06T12:26:13.929Z,99438.91
2023-03-06T12:29:28.320Z,99446.81
2023-03-06T12:32:37.563Z,99444.25
2023-03-06T12:36:13.816Z,99429.56
2023-03-06T12:39:53.079Z,99434.00
2023-03-06T12:43:33.633Z,99426.16
2023-03-06T12:47:02.102Z,99424.44
2023-03-06T12:50:15.266Z,99422.59
2023-03-06T12:53:29.824Z,99420.69
2023-03-06T12:56:34.435Z,99425.91
2023-03-06T12:59:44.596Z,99418.88
2023-03-06T13:03:01.086Z,99416.28
2023-03-06T13:06:20.219Z,99419.78
2023-03-06T13:09:43.608Z,99418.03
2023-03-06T13:16:34.063Z,99410.94
2023-03-06T13:19:36.389Z,99410.12
2023-03-06T13:22:39.483Z,99404.06
2023-03-06T13:25:50.617Z,99397.94
2023-03-06T13:28:54.790Z,99386.50
2023-03-06T13:32:00.401Z,99390.91
2023-03-06T13:35:32.090Z,99386.56
2023-03-06T13:38:40.512Z,99388.38
2023-03-06T13:41:53.320Z,99391.97
2023-03-06T13:44:58.208Z,99386.69
2023-03-06T13:48:37.530Z,99379.69
2023-03-06T13:51:28.247Z,99375.37
2023-03-06T13:54:59.106Z,99372.66
2023-03-06T13:58:23.164Z,99370.13
2023-03-06T14:01:50.172Z,99361.37
2023-03-06T14:05:01.020Z,99369.06
2023-03-06T14:08:12.414Z,99354.19
2023-03-06T14:11:21.363Z,99363.66
2023-03-06T14:14:32.387Z,99353.47
2023-03-06T14:17:38.460Z,99355.31
2023-03-06T14:21:02.818Z,99358.53
2023-03-06T14:24:05.821Z,99349.91
2023-03-06T14:27:17.163Z,99351.53
2023-03-06T14:30:24.698Z,99357.69
2023-03-06T14:33:42.295Z,99360.22
2023-03-06T14:36:50.389Z,99359.28
2023-03-06T14:39:52.537Z,99353.16
2023-03-06T14:43:17.205Z,99346.97
2023-03-06T14:46:21.822Z,99351.25
2023-03-06T14:49:25.937Z,99359.81
2023-03-06T14:52:28.230Z,99352.09
2023-03-06T14:55:34.826Z,99346.84
2023-03-06T14:59:01.383Z,99348.59
2023-03-06T15:02:09.301Z,99342.47
2023-03-06T15:05:22.008Z,99336.44
2023-03-06T15:08:29.711Z,99331.97
2023-03-06T15:12:04.909Z,99337.00
2023-03-06T15:15:08.365Z,99337.91
2023-03-06T15:18:30.341Z,99338.03
2023-03-06T15:21:37.783Z,99333.81
2023-03-06T15:24:39.977Z,99327.69
2023-03-06T15:27:48.883Z,99323.28
2023-03-06T15:31:41.984Z,99319.03
2023-03-06T15:34:44.473Z,99319.84
2023-03-06T15:37:46.679Z,99316.38
2023-03-06T15:41:01.660Z,99328.34
2023-03-06T15:44:12.072Z,99324.09
2023-03-06T15:47:14.569Z,99325.03
2023-03-06T15:50:20.269Z,99323.34
2023-03-06T15:53:22.995Z,99317.22
2023-03-06T15:56:32.105Z,99315.59
2023-03-06T15:59:43.932Z,99324.25
2023-03-06T16:02:47.031Z,99329.44
2023-03-06T16:05:53.175Z,99330.22
2023-03-06T16:08:55.242Z,99337.91
2023-03-06T16:11:57.637Z,99332.50
2023-03-06T16:15:01.249Z,99336.78
2023-03-06T16:18:04.807Z,99333.03
2023-03-06T16:21:06.999Z,99333.09
2023-03-06T16:24:10.321Z,99333.13
2023-03-06T16:27:23.414Z,99337.59
2023-03-06T16:30:28.974Z,99339.00
2023-03-06T16:33:31.426Z,99335.31
2023-03-06T16:36:33.818Z,99338.09
2023-03-06T16:39:35.954Z,99346.47
